This is the latest recevied weather packets stored in our database for station/object KG5MMT-12. If no packets are shown the sender has not sent any weather packets the latest 1 day(s).
| Time | Temp. | Humidity | Pressure | Rain* | Wind** | Luminosity | Snow |
|---|---|---|---|---|---|---|---|
| 1777995830 | 13.89° C | 41% | 0 hPa | 0 mm | 0 m/s | - | - |
| 1777995530 | 13.89° C | 40% | 0 hPa | 0 mm | 1.79 m/s, 255° | - | - |
| 1777995230 | 13.33° C | 40% | 0 hPa | 0 mm | 0.45 m/s, 260° | - | - |
| 1777994930 | 13.33° C | 41% | 0 hPa | 0 mm | 0 m/s | - | - |
| 1777994630 | 12.78° C | 41% | 0 hPa | 0 mm | 0 m/s | - | - |
| 1777994330 | 12.78° C | 40% | 0 hPa | 0 mm | 0 m/s | - | - |
| 1777994030 | 12.78° C | 40% | 0 hPa | 0 mm | 0 m/s | - | - |
| 1777993730 | 12.78° C | 39% | 0 hPa | 0 mm | 0 m/s | - | - |
| 1777993430 | 12.78° C | 39% | 0 hPa | 0 mm | 0.89 m/s, 300° | - | - |
| 1777993221 | 12.78° C | 38% | 0 hPa | 0 mm | 0.45 m/s, 300° | - | - |
| 1777993130 | 12.78° C | 38% | 0 hPa | 0 mm | 0.45 m/s, 300° | - | - |
| 1777992991 | 12.78° C | 36% | 0 hPa | 0 mm | 0 m/s | - | - |
| 1777992830 | 12.78° C | 36% | 0 hPa | 0 mm | 0 m/s | - | - |
| 1777992530 | 12.78° C | 36% | 0 hPa | 0 mm | 0 m/s | - | - |
| 1777992230 | 12.22° C | 36% | 0 hPa | 0 mm | 0 m/s | - | - |
| 1777991930 | 12.22° C | 38% | 0 hPa | 0 mm | 0 m/s | - | - |
| 1777991630 | 11.67° C | 38% | 0 hPa | 0 mm | 0 m/s | - | - |
| 1777991330 | 11.11° C | 42% | 0 hPa | 0 mm | 0 m/s | - | - |
| 1777991030 | 10.56° C | 42% | 0 hPa | 0 mm | 0 m/s | - | - |
| 1777990730 | 9.44° C | 50% | 0 hPa | 0 mm | 0 m/s | - | - |
| 1777990430 | 8.89° C | 50% | 0 hPa | 0 mm | 0 m/s | - | - |
| 1777990130 | 8.33° C | 56% | 0 hPa | 0 mm | 0 m/s | - | - |
| 1777989830 | 7.78° C | 60% | 0 hPa | 0 mm | 0 m/s | - | - |
| 1777989530 | 7.78° C | 58% | 0 hPa | 0 mm | 0 m/s | - | - |
| 1777989230 | 7.22° C | 59% | 0 hPa | 0 mm | 0 m/s | - | - |
* Rain latest hour (hover to see other rain measurements)
** Current wind speed in m/s (hover to see current wind gust speed)